Portada
METAR-TAF:

METAR-TAF

Aeroports :

Kairuan, Tunísia

latitud: 35-40N, longitud: 010-06E, altitud: 60 m

Observació

L'informe es va fer fa 52 minuts, a les 13:00 UTC
Vent 8 kt del Oest/Sud-Oest, variant entre Sud/Sud-Oest i Nord
Temperatura 18°C
Humitat 45%
Pressió 1007 hPa
Visibilitat 10 km o més
Núvols disperses a una alçada de 2300 ft

METAR: DTTK 131300Z 25008KT 200V010 9999 SCT023 18/06 Q1007

Hora: 14:52 (13:52 UTC)


TAF: manca

Observacions i pronòstics meteorològics de més de 4000 aeroports (METAR i TAF).

Les estacions disponibles són els punts grocs i vermells al mapa.

Posi el ratolí al punt desitjat per veure el nom de l'estació.

Feu clic per veure les observacions i els pronòstics meteorològics.

Per canviar el mapa: feu clic els botons verds amb una creu de color negre per apropar; al botó verd amb un guió per allunyar la imatge; o en les fletxes verdes per a mapes adjacents.


METAR-TAF: